createdAt,value
2023-02-03T00:02:12.660Z,33.20
2023-02-03T00:04:40.644Z,37.30
2023-02-03T00:07:10.282Z,36.30
2023-02-03T00:09:38.367Z,46.70
2023-02-03T00:12:06.897Z,49.00
2023-02-03T00:14:35.121Z,51.20
2023-02-03T00:17:03.209Z,44.30
2023-02-03T00:19:31.151Z,44.40
2023-02-03T00:21:59.650Z,41.80
2023-02-03T00:24:27.746Z,35.50
2023-02-03T00:26:56.045Z,38.60
2023-02-03T00:29:26.178Z,34.20
2023-02-03T00:31:54.645Z,34.90
2023-02-03T00:34:22.842Z,32.40
2023-02-03T00:36:50.846Z,36.00
2023-02-03T00:39:18.972Z,36.00
2023-02-03T00:41:48.024Z,34.60
2023-02-03T00:44:16.020Z,38.90
2023-02-03T00:46:45.232Z,41.30
2023-02-03T00:49:13.348Z,40.70
2023-02-03T00:51:41.537Z,34.70
2023-02-03T00:54:10.592Z,43.90
2023-02-03T00:56:41.528Z,38.20
2023-02-03T00:59:09.573Z,37.50
2023-02-03T01:01:37.719Z,35.00
2023-02-03T01:04:05.799Z,32.00
2023-02-03T01:06:34.625Z,33.60
2023-02-03T01:09:03.122Z,36.90
2023-02-03T01:11:31.252Z,32.50
2023-02-03T01:14:02.285Z,33.90
2023-02-03T01:18:59.232Z,33.10
2023-02-03T01:21:30.220Z,33.10
2023-02-03T01:23:58.403Z,33.00
2023-02-03T01:26:27.579Z,34.30
2023-02-03T01:28:56.897Z,39.10
2023-02-03T01:31:35.765Z,38.70
2023-02-03T01:34:03.956Z,31.80
2023-02-03T01:36:33.770Z,35.30
2023-02-03T01:39:04.471Z,39.90
2023-02-03T01:41:35.300Z,35.70
2023-02-03T01:44:38.330Z,33.60
2023-02-03T01:47:15.155Z,35.10
2023-02-03T01:49:47.387Z,34.90
2023-02-03T01:52:16.648Z,32.60
2023-02-03T01:54:45.808Z,36.90
2023-02-03T01:57:48.584Z,33.20
2023-02-03T02:02:46.163Z,34.30
2023-02-03T02:05:34.400Z,34.90
2023-02-03T02:08:03.095Z,36.80
2023-02-03T02:10:31.497Z,36.90
2023-02-03T02:13:01.985Z,39.20
2023-02-03T02:15:41.016Z,37.80
2023-02-03T02:18:44.523Z,44.80
2023-02-03T02:21:42.674Z,39.20
2023-02-03T02:24:29.514Z,40.80
2023-02-03T02:27:36.923Z,39.00
2023-02-03T02:30:35.947Z,39.90
2023-02-03T02:33:12.401Z,34.60
2023-02-03T02:36:02.424Z,38.20
2023-02-03T02:38:41.112Z,43.30
2023-02-03T02:41:19.297Z,32.80
2023-02-03T02:43:49.473Z,33.70
2023-02-03T02:46:25.712Z,34.70
2023-02-03T02:49:03.838Z,41.80
2023-02-03T02:51:32.633Z,41.00
2023-02-03T02:54:04.162Z,39.50
2023-02-03T02:56:33.300Z,40.50
2023-02-03T02:59:02.127Z,38.40
2023-02-03T03:01:30.312Z,41.60
2023-02-03T03:03:59.085Z,41.30
2023-02-03T03:06:36.984Z,40.00
2023-02-03T03:09:14.692Z,39.40
2023-02-03T03:11:49.817Z,40.40
2023-02-03T03:14:19.642Z,39.50
2023-02-03T03:16:53.474Z,38.30
2023-02-03T03:19:24.523Z,41.40
2023-02-03T03:21:58.104Z,43.00
2023-02-03T03:24:34.308Z,44.60
2023-02-03T03:27:07.089Z,50.90
2023-02-03T03:29:43.896Z,46.20
2023-02-03T03:32:12.241Z,53.70
2023-02-03T03:34:40.461Z,48.20
2023-02-03T03:37:27.806Z,48.80
2023-02-03T03:39:59.980Z,48.50
2023-02-03T03:42:34.004Z,54.10
2023-02-03T03:45:07.255Z,46.10
2023-02-03T03:47:52.896Z,51.20
2023-02-03T03:50:29.378Z,47.20
2023-02-03T03:53:01.529Z,43.10
2023-02-03T03:55:32.903Z,40.20
2023-02-03T03:58:26.782Z,39.60
2023-02-03T04:00:59.180Z,39.30
2023-02-03T04:03:51.970Z,37.20
2023-02-03T04:06:22.460Z,36.20
2023-02-03T04:08:52.987Z,36.30
2023-02-03T04:11:42.619Z,35.40
2023-02-03T04:14:14.206Z,38.50
2023-02-03T04:16:44.006Z,39.00
2023-02-03T04:19:14.906Z,36.50
2023-02-03T04:21:47.981Z,33.40
2023-02-03T04:24:18.131Z,36.30
2023-02-03T04:26:48.934Z,35.40
2023-02-03T04:31:50.494Z,38.40
2023-02-03T04:34:21.506Z,40.70
2023-02-03T04:36:51.654Z,34.20
2023-02-03T04:39:22.367Z,33.70
2023-02-03T04:41:52.286Z,39.10
2023-02-03T04:44:22.066Z,35.20
2023-02-03T04:54:42.301Z,35.80
2023-02-03T04:57:09.086Z,41.20
2023-02-03T04:59:35.726Z,42.80
2023-02-03T05:02:04.386Z,44.40
2023-02-03T05:04:31.519Z,41.50
2023-02-03T05:06:58.365Z,44.70
2023-02-03T05:09:25.307Z,46.00
2023-02-03T05:11:52.515Z,42.70
2023-02-03T05:14:19.494Z,39.20
2023-02-03T05:16:46.489Z,44.60
2023-02-03T05:19:13.709Z,38.30
2023-02-03T05:21:40.688Z,40.30
2023-02-03T05:24:08.237Z,38.10
2023-02-03T05:26:35.150Z,38.70
2023-02-03T05:29:02.439Z,46.50
2023-02-03T05:31:29.425Z,48.20
2023-02-03T05:33:56.511Z,51.90
2023-02-03T05:36:23.452Z,58.10
2023-02-03T05:38:50.432Z,56.10
2023-02-03T05:41:35.823Z,47.40
2023-02-03T05:44:02.831Z,49.90
2023-02-03T05:46:29.782Z,52.90
2023-02-03T05:48:56.431Z,117.80
2023-02-03T05:51:24.579Z,122.30
2023-02-03T05:53:59.216Z,105.60
2023-02-03T05:56:26.297Z,100.10
2023-02-03T05:58:53.574Z,120.00
2023-02-03T06:01:20.739Z,103.10
2023-02-03T06:03:49.871Z,62.80
2023-02-03T06:06:17.065Z,54.70
2023-02-03T06:08:44.158Z,52.90
2023-02-03T06:11:11.100Z,54.40
2023-02-03T06:13:37.945Z,54.50
2023-02-03T06:16:04.890Z,52.30
2023-02-03T06:18:31.774Z,59.20
2023-02-03T06:28:34.694Z,58.90
2023-02-03T06:31:02.857Z,48.70
2023-02-03T06:33:31.639Z,58.50
2023-02-03T06:36:00.231Z,51.00
2023-02-03T06:38:28.407Z,48.70
2023-02-03T06:40:56.491Z,43.60
2023-02-03T06:43:24.880Z,46.00
2023-02-03T06:45:53.023Z,50.10
2023-02-03T06:48:21.094Z,43.60
2023-02-03T06:50:49.206Z,48.90
2023-02-03T06:53:17.651Z,46.40
2023-02-03T06:55:48.140Z,47.60
2023-02-03T06:58:16.285Z,48.40
2023-02-03T07:00:44.420Z,44.30
2023-02-03T07:03:12.943Z,42.60
2023-02-03T07:05:41.107Z,51.00
2023-02-03T07:08:09.265Z,59.20
2023-02-03T07:10:38.790Z,77.60
2023-02-03T07:13:07.287Z,40.90
2023-02-03T07:15:37.686Z,48.50
2023-02-03T07:18:05.906Z,42.30
2023-02-03T07:20:35.605Z,42.80
2023-02-03T07:23:04.756Z,46.00
2023-02-03T07:25:32.955Z,50.20
2023-02-03T07:28:01.561Z,47.80
2023-02-03T07:30:30.366Z,88.50
2023-02-03T07:32:59.066Z,55.30
2023-02-03T07:35:27.520Z,61.20
2023-02-03T07:37:55.766Z,50.00
2023-02-03T07:48:03.399Z,42.80
2023-02-03T07:50:33.618Z,43.50
2023-02-03T07:53:01.711Z,68.40
2023-02-03T07:55:31.720Z,55.60
2023-02-03T07:58:02.910Z,43.50
2023-02-03T08:00:31.982Z,41.50
2023-02-03T08:03:00.224Z,39.80
2023-02-03T08:05:29.636Z,38.00
2023-02-03T08:07:57.951Z,36.70
2023-02-03T08:10:28.011Z,36.80
2023-02-03T08:12:56.669Z,40.50
2023-02-03T08:15:24.912Z,40.30
2023-02-03T08:17:53.736Z,44.10
2023-02-03T08:20:22.267Z,41.90
2023-02-03T08:22:50.387Z,38.40
